Time;durP1;ratioP1;P1;durP2;ratioP2;P2;SDS_P1;SDS_P2;PMS_P1;PMS_P2;Temp;Humidity;BMP_temperature;BMP_pressure;BME280_temperature;BME280_humidity;BME280_pressure;Samples;Min_cycle;Max_cycle;Signal;HPM_P1;HPM_P2
2023/10/08 00:02:25;;;;;;;11.82;5.15;;;15.60;99.90;;;;;;5054351;28;20347;-50
2023/10/08 00:04:51;;;;;;;10.52;4.35;;;15.60;99.90;;;;;;5053154;28;20025;-51
2023/10/08 00:07:24;;;;;;;11.73;5.38;;;15.70;99.90;;;;;;5054280;28;20048;-51
2023/10/08 00:09:51;;;;;;;9.48;4.30;;;15.60;99.90;;;;;;5053285;28;20037;-51
2023/10/08 00:12:17;;;;;;;12.13;5.07;;;15.70;99.90;;;;;;5054756;28;20461;-49
2023/10/08 00:14:44;;;;;;;13.77;4.50;;;15.70;99.90;;;;;;5053268;28;20025;-47
2023/10/08 00:17:13;;;;;;;12.13;4.50;;;15.70;99.90;;;;;;5054967;28;20032;-48
2023/10/08 00:19:39;;;;;;;11.48;5.32;;;15.70;99.90;;;;;;5057737;28;20216;-48
2023/10/08 00:22:07;;;;;;;12.27;5.30;;;15.70;99.90;;;;;;5058292;28;20025;-47
2023/10/08 00:24:33;;;;;;;14.00;4.60;;;15.70;99.90;;;;;;5058187;28;20044;-48
2023/10/08 00:27:00;;;;;;;9.93;4.32;;;15.70;99.90;;;;;;5057976;28;20032;-50
2023/10/08 00:29:26;;;;;;;14.75;4.72;;;15.70;99.90;;;;;;5057815;28;20354;-48
2023/10/08 00:31:52;;;;;;;10.48;4.07;;;15.60;99.90;;;;;;5058017;28;20025;-48
2023/10/08 00:34:19;;;;;;;12.48;4.68;;;15.60;99.90;;;;;;5056943;28;20075;-50
2023/10/08 00:36:46;;;;;;;10.95;4.50;;;15.60;99.90;;;;;;5057924;28;20086;-51
2023/10/08 00:39:16;;;;;;;10.63;4.15;;;15.60;99.90;;;;;;5057476;28;20048;-51
2023/10/08 00:41:45;;;;;;;16.52;4.70;;;15.50;99.90;;;;;;5057947;28;20037;-51
2023/10/08 00:44:47;;;;;;;9.75;4.35;;;15.60;99.90;;;;;;5057915;28;20029;-51
2023/10/08 00:47:04;;;;;;;10.82;4.50;;;15.50;99.90;;;;;;5058266;28;20076;-50
2023/10/08 00:57:21;;;;;;;13.83;5.20;;;15.50;99.90;;;;;;5057571;28;20033;-48
2023/10/08 00:59:52;;;;;;;8.95;4.20;;;15.50;99.90;;;;;;5056487;28;20059;-47
2023/10/08 01:02:28;;;;;;;11.93;4.72;;;15.50;99.90;;;;;;5058148;28;20460;-48
2023/10/08 01:04:55;;;;;;;15.55;5.00;;;15.50;99.90;;;;;;5056639;28;20040;-47
2023/10/08 01:07:21;;;;;;;12.45;4.93;;;15.40;99.90;;;;;;5057298;28;20037;-48
2023/10/08 01:09:51;;;;;;;14.45;4.90;;;15.50;99.90;;;;;;5056184;28;20388;-49
2023/10/08 01:15:23;;;;;;;12.32;4.90;;;15.40;99.90;;;;;;5057148;28;20066;-48
2023/10/08 01:17:58;;;;;;;11.20;4.47;;;15.40;99.90;;;;;;5057250;28;20025;-48
2023/10/08 01:20:50;;;;;;;12.25;4.50;;;15.40;99.90;;;;;;5056882;28;20025;-48
2023/10/08 01:23:26;;;;;;;11.15;4.80;;;15.40;99.90;;;;;;5056187;28;20104;-47
2023/10/08 01:25:52;;;;;;;11.75;5.22;;;15.40;99.90;;;;;;5057058;28;20036;-47
2023/10/08 01:28:29;;;;;;;13.02;4.10;;;15.40;99.90;;;;;;5056474;28;20044;-49
2023/10/08 01:31:00;;;;;;;13.85;4.65;;;15.40;99.90;;;;;;5056559;28;20151;-47
2023/10/08 01:33:29;;;;;;;8.68;4.60;;;15.40;99.90;;;;;;5057101;28;20461;-48
2023/10/08 01:35:55;;;;;;;10.32;4.43;;;15.50;99.90;;;;;;5056880;28;20346;-48
2023/10/08 01:38:23;;;;;;;9.05;4.25;;;15.50;99.90;;;;;;5056735;28;20090;-47
2023/10/08 01:40:52;;;;;;;13.35;4.43;;;15.50;99.90;;;;;;5056633;28;20040;-47
2023/10/08 01:43:18;;;;;;;9.63;4.00;;;15.50;99.90;;;;;;5056840;28;20470;-49
2023/10/08 01:45:48;;;;;;;10.25;4.50;;;15.50;99.90;;;;;;5055535;28;20033;-48
2023/10/08 01:48:14;;;;;;;;;;;15.50;99.90;;;;;;5056927;28;20095;-48
2023/10/08 01:50:39;;;;;;;14.02;4.30;;;15.40;99.90;;;;;;5055325;28;20262;-48
2023/10/08 01:53:11;;;;;;;10.73;4.00;;;15.50;99.90;;;;;;5056082;28;20048;-49
2023/10/08 01:55:48;;;;;;;11.52;4.38;;;15.50;99.90;;;;;;5056604;28;20106;-48
2023/10/08 01:58:16;;;;;;;11.02;4.07;;;15.50;99.90;;;;;;5055127;28;20041;-48
2023/10/08 02:00:45;;;;;;;8.95;4.10;;;15.40;99.90;;;;;;5056180;28;20033;-48
2023/10/08 02:03:12;;;;;;;9.43;3.87;;;15.50;99.90;;;;;;5056243;28;20366;-49
2023/10/08 02:05:39;;;;;;;13.02;4.57;;;15.50;99.90;;;;;;5055803;28;20098;-47
2023/10/08 02:08:06;;;;;;;10.13;4.22;;;15.50;99.90;;;;;;5056202;28;20116;-48
2023/10/08 02:10:33;;;;;;;8.32;3.42;;;15.50;99.90;;;;;;5055193;28;20049;-48
2023/10/08 02:12:59;;;;;;;11.02;4.10;;;15.50;99.90;;;;;;5054860;28;20110;-47
2023/10/08 02:15:26;;;;;;;13.32;4.50;;;15.50;99.90;;;;;;5056112;28;20461;-50
2023/10/08 02:17:51;;;;;;;9.80;3.65;;;15.50;99.90;;;;;;5056085;28;20082;-48
2023/10/08 02:20:18;;;;;;;11.85;3.90;;;15.50;99.90;;;;;;5055936;28;20343;-48
2023/10/08 02:22:45;;;;;;;10.73;4.40;;;15.40;99.90;;;;;;5054834;28;20460;-48
2023/10/08 02:25:11;;;;;;;9.15;3.55;;;15.40;99.90;;;;;;5055468;28;20021;-48
2023/10/08 02:27:37;;;;;;;8.35;3.63;;;15.40;99.90;;;;;;5055778;28;20453;-47
2023/10/08 02:30:09;;;;;;;9.77;3.85;;;15.30;99.90;;;;;;5055860;28;20033;-48
2023/10/08 02:32:36;;;;;;;10.70;3.97;;;15.30;99.90;;;;;;5055511;28;20103;-50
2023/10/08 02:35:02;;;;;;;10.55;3.67;;;15.30;99.90;;;;;;5055568;28;20409;-50
2023/10/08 02:37:28;;;;;;;6.75;3.47;;;15.30;99.90;;;;;;5055736;28;20033;-48
2023/10/08 02:39:54;;;;;;;9.68;3.38;;;15.30;99.90;;;;;;5055597;28;20056;-49
2023/10/08 02:42:21;;;;;;;8.65;3.67;;;15.50;99.90;;;;;;5055466;28;20032;-52
2023/10/08 02:44:47;;;;;;;11.27;4.03;;;15.50;99.90;;;;;;5054346;28;20035;-48
2023/10/08 02:47:20;;;;;;;8.95;3.58;;;15.50;99.90;;;;;;5054342;28;20366;-48
2023/10/08 02:49:48;;;;;;;8.77;3.63;;;15.50;99.90;;;;;;5055452;28;20110;-47
2023/10/08 02:52:15;;;;;;;8.60;3.33;;;15.50;99.90;;;;;;5055075;28;20036;-48
2023/10/08 02:54:41;;;;;;;9.50;3.13;;;15.50;99.90;;;;;;5055176;28;20029;-48
2023/10/08 02:57:14;;;;;;;13.38;4.13;;;15.50;99.90;;;;;;5054899;28;20025;-47
2023/10/08 02:59:40;;;;;;;7.20;3.15;;;15.50;99.90;;;;;;5054411;28;20107;-48
2023/10/08 03:02:14;;;;;;;8.60;2.95;;;15.60;99.90;;;;;;5055298;28;20108;-48
2023/10/08 03:04:42;;;;;;;6.47;2.83;;;15.60;99.90;;;;;;5055035;28;20033;-49
2023/10/08 03:07:11;;;;;;;6.35;3.05;;;15.60;99.90;;;;;;5055081;28;20053;-47
2023/10/08 03:09:42;;;;;;;8.27;3.50;;;15.60;99.90;;;;;;5055030;28;20485;-47
2023/10/08 03:12:10;;;;;;;7.20;2.90;;;15.60;99.90;;;;;;5054752;28;20029;-48
2023/10/08 03:14:48;;;;;;;7.28;3.08;;;15.70;99.90;;;;;;5054676;28;20262;-50
2023/10/08 03:17:19;;;;;;;9.93;2.97;;;15.70;99.90;;;;;;5055069;28;20100;-48
2023/10/08 03:19:45;;;;;;;9.43;3.08;;;15.60;99.90;;;;;;5055671;28;20402;-50
2023/10/08 03:22:12;;;;;;;6.28;2.90;;;15.60;99.90;;;;;;5055055;28;20037;-47
2023/10/08 03:24:38;;;;;;;7.57;3.00;;;15.60;99.90;;;;;;5054022;28;20044;-49
2023/10/08 03:27:20;;;;;;;8.60;3.15;;;15.60;99.90;;;;;;5055321;28;20394;-48
2023/10/08 03:29:46;;;;;;;9.23;3.15;;;15.70;99.90;;;;;;5054573;28;20462;-51
2023/10/08 03:32:15;;;;;;;7.50;3.13;;;15.70;99.90;;;;;;5054522;28;20056;-48
2023/10/08 03:34:46;;;;;;;7.07;2.92;;;15.70;99.90;;;;;;5054864;28;20108;-48
2023/10/08 03:37:19;;;;;;;10.07;2.90;;;15.70;99.90;;;;;;5055071;28;20086;-48
2023/10/08 03:39:51;;;;;;;6.45;2.70;;;15.80;99.90;;;;;;5055328;28;20350;-51
2023/10/08 03:42:24;;;;;;;9.43;2.95;;;15.80;99.90;;;;;;5054850;28;20339;-48
2023/10/08 03:44:55;;;;;;;10.82;3.13;;;15.80;99.90;;;;;;5054758;28;20044;-48
2023/10/08 03:47:26;;;;;;;7.50;2.90;;;15.80;99.90;;;;;;5055418;28;20036;-49
2023/10/08 03:49:54;;;;;;;8.98;2.95;;;15.80;99.90;;;;;;5054627;28;20028;-48
2023/10/08 03:52:23;;;;;;;7.45;2.65;;;15.80;99.90;;;;;;5055958;28;20021;-48
2023/10/08 03:54:55;;;;;;;8.48;3.28;;;15.80;99.90;;;;;;5057648;28;20036;-49
2023/10/08 03:57:25;;;;;;;7.65;3.15;;;15.80;99.90;;;;;;5057889;28;20029;-49
2023/10/08 03:59:55;;;;;;;9.68;3.60;;;15.80;99.90;;;;;;5057730;28;20033;-49
2023/10/08 04:02:39;;;;;;;8.52;2.90;;;15.70;99.90;;;;;;5058574;28;20120;-48
2023/10/08 04:05:18;;;;;;;7.43;3.65;;;15.70;99.90;;;;;;5058348;28;20033;-49
2023/10/08 04:08:42;;;;;;;9.47;2.87;;;15.60;99.90;;;;;;5058527;28;20112;-50
2023/10/08 04:13:08;;;;;;;8.00;3.20;;;15.60;99.90;;;;;;5057169;28;20033;-49
2023/10/08 04:15:34;;;;;;;9.00;3.03;;;15.60;99.90;;;;;;5057466;28;20029;-47
2023/10/08 04:18:02;;;;;;;10.88;3.47;;;15.60;99.90;;;;;;5058626;28;20037;-51
2023/10/08 04:23:04;;;;;;;11.25;2.95;;;15.60;99.90;;;;;;5058326;28;20040;-51
2023/10/08 04:25:30;;;;;;;7.18;3.15;;;15.60;99.90;;;;;;5057854;28;20090;-52
2023/10/08 04:27:59;;;;;;;13.82;5.22;;;15.60;99.90;;;;;;5058055;28;20083;-51
2023/10/08 04:30:35;;;;;;;10.88;3.65;;;15.60;99.90;;;;;;5056897;28;20454;-51
2023/10/08 04:33:06;;;;;;;8.88;3.15;;;15.50;99.90;;;;;;5058107;28;20035;-51
2023/10/08 04:36:09;;;;;;;12.65;3.75;;;15.50;99.90;;;;;;5058102;28;20033;-51
2023/10/08 04:38:28;;;;;;;10.45;3.70;;;15.50;99.90;;;;;;5056889;28;20171;-50
2023/10/08 04:40:55;;;;;;;7.72;2.88;;;15.50;99.90;;;;;;5057881;28;20112;-51
2023/10/08 04:43:25;;;;;;;13.32;3.53;;;15.50;99.90;;;;;;5057998;28;20029;-51
2023/10/08 04:45:54;;;;;;;;;;;15.50;99.90;;;;;;5024787;28;20036;-51
2023/10/08 04:48:23;;;;;;;9.55;3.55;;;15.50;99.90;;;;;;5057940;28;20006;-51
2023/10/08 04:50:57;;;;;;;10.80;3.45;;;15.40;99.90;;;;;;5057944;28;20021;-51
2023/10/08 04:53:31;;;;;;;7.03;3.08;;;15.40;99.90;;;;;;5041386;28;20427;-51
2023/10/08 04:56:02;;;;;;;10.05;3.35;;;15.40;99.90;;;;;;5056536;28;20124;-51
2023/10/08 04:58:33;;;;;;;8.38;3.10;;;15.40;99.90;;;;;;5057570;28;20064;-52
2023/10/08 05:01:16;;;;;;;10.82;2.72;;;15.30;99.90;;;;;;5057125;28;20029;-51
2023/10/08 05:03:56;;;;;;;8.85;2.97;;;15.30;99.90;;;;;;5056517;28;20039;-50
2023/10/08 05:12:15;;;;;;;9.77;3.50;;;15.40;99.90;;;;;;5057630;28;20159;-51
2023/10/08 05:14:55;;;;;;;7.68;3.50;;;15.40;99.90;;;;;;5056376;28;20442;-51
2023/10/08 05:30:17;;;;;;;8.30;3.35;;;15.40;99.90;;;;;;5057227;28;20443;-49
2023/10/08 05:36:18;;;;;;;9.05;3.13;;;15.40;99.90;;;;;;5056939;28;20087;-48
2023/10/08 05:38:23;;;;;;;9.85;2.92;;;15.30;99.90;;;;;;5058804;28;20415;-48
2023/10/08 05:54:35;;;;;;;11.38;2.97;;;15.30;99.90;;;;;;5056239;28;20043;-49
2023/10/08 06:03:09;;;;;;;13.45;3.70;;;15.30;99.90;;;;;;5056103;28;20037;-49
2023/10/08 06:13:10;;;;;;;9.25;3.13;;;15.00;99.90;;;;;;5055134;28;20030;-49
2023/10/08 06:16:05;;;;;;;14.30;3.50;;;14.90;99.90;;;;;;5056244;28;20346;-48
2023/10/08 06:18:31;;;;;;;11.95;3.45;;;14.80;99.90;;;;;;5055559;28;20041;-48
2023/10/08 06:20:58;;;;;;;9.80;2.83;;;14.80;99.90;;;;;;5055841;28;20473;-49
2023/10/08 06:23:24;;;;;;;10.98;4.15;;;14.80;99.90;;;;;;5056324;28;20035;-49
2023/10/08 06:25:56;;;;;;;8.30;2.88;;;14.90;99.90;;;;;;5056192;28;20036;-49
2023/10/08 06:28:25;;;;;;;12.18;3.90;;;15.00;99.90;;;;;;5055689;28;20408;-48
2023/10/08 06:30:55;;;;;;;12.82;4.72;;;15.10;99.90;;;;;;5055729;28;20114;-49
2023/10/08 06:33:22;;;;;;;11.13;3.60;;;15.20;99.90;;;;;;5056431;28;20370;-50
2023/10/08 06:36:02;;;;;;;13.40;3.80;;;15.10;99.90;;;;;;5055968;28;20021;-48
2023/10/08 06:38:33;;;;;;;8.50;3.58;;;15.10;99.90;;;;;;5055816;28;20449;-49
2023/10/08 06:41:33;;;;;;;8.38;3.65;;;15.20;99.90;;;;;;5055694;28;20056;-48
2023/10/08 06:43:54;;;;;;;10.18;3.55;;;15.10;99.90;;;;;;5055697;28;20044;-50
2023/10/08 06:46:22;;;;;;;11.32;4.05;;;15.00;99.90;;;;;;5055569;28;20051;-48
2023/10/08 06:48:49;;;;;;;11.57;5.30;;;14.90;99.90;;;;;;5055256;28;20025;-48
2023/10/08 06:51:17;;;;;;;12.13;4.55;;;14.90;99.90;;;;;;5055256;28;20172;-47
2023/10/08 06:53:44;;;;;;;10.25;3.80;;;14.90;99.90;;;;;;5055446;28;20025;-50
2023/10/08 06:56:12;;;;;;;12.25;4.10;;;14.90;99.90;;;;;;5055473;28;20025;-51
2023/10/08 06:58:38;;;;;;;10.25;4.32;;;14.90;99.90;;;;;;5055186;28;20346;-47
2023/10/08 07:01:08;;;;;;;7.78;3.33;;;15.00;99.90;;;;;;5055229;28;20331;-51
2023/10/08 07:03:34;;;;;;;;;;;15.00;99.90;;;;;;5055749;28;20044;-51
2023/10/08 07:06:02;;;;;;;8.05;3.28;;;15.10;99.90;;;;;;5054865;28;20427;-51
2023/10/08 07:08:31;;;;;;;10.35;3.65;;;15.10;99.90;;;;;;5054656;28;20044;-48
2023/10/08 07:10:59;;;;;;;9.35;3.15;;;15.10;99.90;;;;;;5055606;28;20407;-48
2023/10/08 07:13:25;;;;;;;9.95;3.10;;;15.10;99.90;;;;;;5055168;28;20074;-50
2023/10/08 07:15:51;;;;;;;9.57;3.47;;;15.30;99.90;;;;;;5055220;28;20405;-49
2023/10/08 07:18:26;;;;;;;10.15;3.83;;;15.40;99.90;;;;;;5054995;28;20048;-51
2023/10/08 07:21:00;;;;;;;16.60;3.88;;;15.50;99.90;;;;;;5054431;28;20373;-49
2023/10/08 07:23:29;;;;;;;10.02;4.15;;;15.50;99.90;;;;;;5054419;28;20163;-48
2023/10/08 07:26:17;;;;;;;7.57;3.10;;;15.50;99.90;;;;;;5054848;28;20033;-47
2023/10/08 07:28:43;;;;;;;15.45;3.92;;;15.60;99.90;;;;;;5054628;28;20095;-48
2023/10/08 07:31:23;;;;;;;12.18;4.50;;;15.60;99.90;;;;;;5054905;28;20036;-48
2023/10/08 07:33:57;;;;;;;11.90;5.10;;;15.60;99.90;;;;;;5055578;28;20111;-49
2023/10/08 07:36:26;;;;;;;16.13;5.85;;;15.70;99.90;;;;;;5053632;28;20354;-48
2023/10/08 07:38:52;;;;;;;17.52;5.05;;;15.80;99.90;;;;;;5053728;28;20045;-49
2023/10/08 07:41:20;;;;;;;13.50;5.10;;;15.80;99.90;;;;;;5053744;28;20040;-49
2023/10/08 07:43:46;;;;;;;15.65;4.32;;;15.80;99.90;;;;;;5055085;28;20029;-47
2023/10/08 07:46:15;;;;;;;11.73;4.03;;;15.80;99.90;;;;;;5053540;28;20056;-48
2023/10/08 07:48:43;;;;;;;13.77;4.22;;;15.80;99.90;;;;;;5053480;28;20025;-47
2023/10/08 07:51:08;;;;;;;8.85;3.00;;;15.90;99.90;;;;;;5055087;28;20036;-48
2023/10/08 07:53:41;;;;;;;9.80;4.03;;;15.90;99.90;;;;;;5054652;28;20438;-47
2023/10/08 07:56:08;;;;;;;10.90;4.10;;;15.90;99.90;;;;;;5054089;28;20044;-48
2023/10/08 07:58:36;;;;;;;10.77;3.38;;;16.00;99.90;;;;;;5054609;28;20041;-47
2023/10/08 08:01:06;;;;;;;9.25;3.63;;;15.90;99.90;;;;;;5054143;28;20350;-48
2023/10/08 08:03:38;;;;;;;12.10;4.35;;;16.00;99.90;;;;;;5055048;28;20033;-47
2023/10/08 08:06:07;;;;;;;9.35;3.67;;;16.00;99.90;;;;;;5054504;28;20059;-48
2023/10/08 08:08:33;;;;;;;11.03;4.30;;;16.00;99.90;;;;;;5053416;28;20124;-47
2023/10/08 08:11:12;;;;;;;13.90;5.63;;;15.90;99.90;;;;;;5054418;28;20028;-47
2023/10/08 08:13:43;;;;;;;16.38;4.32;;;15.90;99.90;;;;;;5054612;28;20033;-48
2023/10/08 08:16:16;;;;;;;12.40;3.83;;;16.00;99.90;;;;;;5054657;28;20032;-48
2023/10/08 08:18:52;;;;;;;9.50;3.70;;;16.00;99.90;;;;;;5053354;28;20044;-47
2023/10/08 08:21:19;;;;;;;12.45;3.70;;;16.50;99.90;;;;;;5054394;28;20120;-48
2023/10/08 08:23:48;;;;;;;12.57;3.70;;;16.70;99.90;;;;;;5054616;28;20048;-47
2023/10/08 08:26:26;;;;;;;6.97;3.13;;;16.80;99.90;;;;;;5053980;28;20327;-47
2023/10/08 08:28:59;;;;;;;11.70;3.40;;;17.00;99.90;;;;;;5054328;28;20029;-48
2023/10/08 08:31:25;;;;;;;14.15;3.90;;;17.20;99.90;;;;;;5054588;28;20033;-49
2023/10/08 08:33:59;;;;;;;11.35;3.88;;;17.30;99.90;;;;;;5054732;28;20113;-48
2023/10/08 08:36:27;;;;;;;7.68;3.17;;;17.40;99.90;;;;;;5054079;28;20443;-49
2023/10/08 08:38:52;;;;;;;7.70;3.38;;;17.30;99.90;;;;;;5055754;28;20056;-48
2023/10/08 08:41:20;;;;;;;7.15;3.35;;;17.20;99.90;;;;;;5057713;28;20060;-48
2023/10/08 08:43:56;;;;;;;14.48;4.55;;;17.20;99.90;;;;;;5057644;28;20116;-48
2023/10/08 08:46:26;;;;;;;9.10;3.05;;;17.20;99.90;;;;;;5057497;28;20041;-51
2023/10/08 08:48:52;;;;;;;9.40;3.83;;;17.20;99.90;;;;;;5056497;28;20465;-50
2023/10/08 08:51:20;;;;;;;7.55;2.92;;;17.30;99.90;;;;;;5056623;28;20025;-50
2023/10/08 08:53:46;;;;;;;7.50;3.38;;;17.30;99.90;;;;;;5057838;28;20044;-50
2023/10/08 08:56:12;;;;;;;7.43;3.17;;;17.50;99.90;;;;;;5057840;28;20466;-50
2023/10/08 08:58:38;;;;;;;13.80;4.40;;;17.50;99.90;;;;;;5057707;28;20029;-50
2023/10/08 09:01:07;;;;;;;10.20;3.00;;;17.50;99.90;;;;;;5056131;28;20361;-50
2023/10/08 09:03:33;;;;;;;9.13;3.20;;;17.50;99.90;;;;;;5056243;28;20121;-49
2023/10/08 09:05:59;;;;;;;7.93;3.08;;;17.40;99.90;;;;;;5057056;28;20442;-50
2023/10/08 09:08:31;;;;;;;9.30;3.58;;;17.30;99.90;;;;;;5055779;28;20033;-50
2023/10/08 09:11:04;;;;;;;10.63;3.33;;;17.40;99.90;;;;;;5055994;28;20442;-50
2023/10/08 09:13:30;;;;;;;10.27;3.13;;;17.40;99.90;;;;;;5040250;28;20120;-51
2023/10/08 09:16:17;;;;;;;10.70;3.47;;;17.50;99.90;;;;;;5057261;28;20033;-50
2023/10/08 09:18:49;;;;;;;10.93;3.40;;;17.60;99.90;;;;;;5056838;28;20531;-51
2023/10/08 09:21:19;;;;;;;7.40;3.20;;;17.90;99.90;;;;;;5057644;28;20043;-51
2023/10/08 09:23:47;;;;;;;8.98;3.28;;;18.30;99.90;;;;;;5057360;28;20033;-51
2023/10/08 09:26:16;;;;;;;8.00;3.33;;;18.90;99.90;;;;;;5055804;28;20033;-52
2023/10/08 09:28:46;;;;;;;10.73;3.45;;;19.10;99.90;;;;;;5056976;28;20044;-50
2023/10/08 09:31:12;;;;;;;13.15;4.05;;;19.00;99.90;;;;;;5055897;28;20025;-51
2023/10/08 09:33:39;;;;;;;10.60;3.65;;;18.80;99.90;;;;;;5056905;28;20458;-51
2023/10/08 09:36:05;;;;;;;9.35;3.00;;;18.80;99.90;;;;;;5055869;28;20048;-50
2023/10/08 09:38:31;;;;;;;6.82;2.97;;;19.00;99.90;;;;;;5055808;28;20040;-51
2023/10/08 09:40:57;;;;;;;9.45;3.40;;;19.00;99.90;;;;;;5022581;28;20047;-51
2023/10/08 09:43:24;;;;;;;8.68;4.07;;;19.50;99.90;;;;;;5055934;28;20039;-51
2023/10/08 09:46:13;;;;;;;8.35;3.65;;;20.50;99.90;;;;;;5055246;28;20026;-51
2023/10/08 09:48:41;;;;;;;17.33;8.05;;;21.00;99.90;;;;;;5056340;28;20044;-51
2023/10/08 09:51:07;;;;;;;20.85;15.05;;;20.70;99.90;;;;;;5056171;28;20028;-50
2023/10/08 09:53:53;;;;;;;19.27;6.82;;;20.10;99.90;;;;;;5055323;28;20063;-50
2023/10/08 09:56:19;;;;;;;14.73;6.18;;;19.90;99.90;;;;;;5056017;28;20096;-51
2023/10/08 09:58:45;;;;;;;9.45;5.05;;;20.10;99.90;;;;;;5055213;28;20071;-50
2023/10/08 10:01:11;;;;;;;9.80;4.78;;;21.20;99.90;;;;;;5038021;28;20064;-50
2023/10/08 10:03:37;;;;;;;10.98;4.00;;;22.10;98.50;;;;;;5056223;28;20091;-50
2023/10/08 10:06:05;;;;;;;11.80;3.53;;;22.60;95.80;;;;;;5054626;28;20057;-52
2023/10/08 10:08:35;;;;;;;10.32;3.90;;;23.10;94.80;;;;;;5038525;28;20135;-52
2023/10/08 10:11:01;;;;;;;9.50;3.15;;;23.50;93.30;;;;;;5054997;28;20104;-50
2023/10/08 10:13:44;;;;;;;8.50;3.42;;;23.70;92.40;;;;;;5056237;28;20029;-51
2023/10/08 10:16:13;;;;;;;7.75;2.72;;;24.40;90.30;;;;;;5056098;28;20029;-52
2023/10/08 10:18:39;;;;;;;9.40;3.10;;;24.00;90.90;;;;;;5055784;28;20033;-52
2023/10/08 10:21:13;;;;;;;9.23;3.35;;;23.80;91.40;;;;;;5055823;28;20415;-51
2023/10/08 10:23:45;;;;;;;10.18;3.50;;;23.20;93.80;;;;;;5055917;28;20489;-52
2023/10/08 10:26:30;;;;;;;9.32;3.45;;;23.40;94.20;;;;;;5055877;28;20434;-52
2023/10/08 10:29:10;;;;;;;10.15;3.47;;;24.00;93.50;;;;;;5055508;28;20048;-51
2023/10/08 10:31:37;;;;;;;10.38;3.60;;;24.30;91.70;;;;;;5055701;28;20025;-52
2023/10/08 10:34:09;;;;;;;8.05;3.45;;;24.00;92.60;;;;;;5054676;28;20044;-52
2023/10/08 10:36:36;;;;;;;8.88;3.20;;;23.90;93.50;;;;;;5055455;28;20036;-52
2023/10/08 10:39:15;;;;;;;10.10;3.42;;;23.30;95.00;;;;;;5055733;28;20076;-52
2023/10/08 10:41:44;;;;;;;8.45;3.13;;;23.30;96.90;;;;;;5056043;28;20399;-52
2023/10/08 10:44:11;;;;;;;6.53;2.90;;;22.60;96.40;;;;;;5055812;28;20114;-52
2023/10/08 10:46:41;;;;;;;9.32;3.28;;;22.50;98.40;;;;;;5055423;28;20040;-52
2023/10/08 10:49:30;;;;;;;10.63;3.95;;;23.00;97.30;;;;;;5055216;28;20346;-49
2023/10/08 10:51:58;;;;;;;7.53;3.45;;;23.30;96.10;;;;;;5055481;28;20058;-52
2023/10/08 10:54:24;;;;;;;8.73;3.30;;;24.00;94.20;;;;;;5055189;28;20053;-52
2023/10/08 10:57:09;;;;;;;7.10;3.10;;;23.80;94.10;;;;;;5037557;28;20452;-52
2023/10/08 10:59:37;;;;;;;11.68;4.00;;;23.50;95.90;;;;;;5055888;28;20430;-50
2023/10/08 11:02:21;;;;;;;9.82;3.22;;;23.20;97.60;;;;;;5054255;28;20044;-49
2023/10/08 11:04:49;;;;;;;8.27;3.60;;;22.40;99.00;;;;;;5054908;28;20078;-50
2023/10/08 11:07:20;;;;;;;9.35;3.53;;;21.80;99.90;;;;;;5053537;28;20052;-51
2023/10/08 11:09:51;;;;;;;12.98;3.50;;;21.70;99.90;;;;;;5037593;28;20348;-50
2023/10/08 11:12:32;;;;;;;16.65;4.43;;;21.80;99.90;;;;;;5055049;28;20033;-51
2023/10/08 11:14:58;;;;;;;10.93;3.47;;;21.70;99.90;;;;;;5054635;28;20024;-52
2023/10/08 11:17:26;;;;;;;8.32;3.72;;;21.90;99.90;;;;;;5053884;28;20029;-51
2023/10/08 11:19:51;;;;;;;9.15;3.30;;;22.20;99.90;;;;;;5054927;28;20465;-51
2023/10/08 11:22:18;;;;;;;8.52;3.92;;;23.20;98.10;;;;;;5053604;28;20033;-50
2023/10/08 11:24:53;;;;;;;11.52;3.20;;;24.30;93.70;;;;;;5054722;28;20166;-51
2023/10/08 11:27:28;;;;;;;7.68;3.40;;;24.60;92.60;;;;;;5054067;28;20430;-51
2023/10/08 11:29:57;;;;;;;9.07;3.42;;;24.70;91.30;;;;;;5054403;28;20036;-52
2023/10/08 11:32:25;;;;;;;12.32;3.13;;;24.30;91.50;;;;;;5054514;28;20454;-52
2023/10/08 11:35:01;;;;;;;7.15;3.10;;;23.50;93.80;;;;;;5054533;28;20086;-52
2023/10/08 11:37:33;;;;;;;6.75;2.70;;;23.30;94.30;;;;;;5054601;28;20017;-52
2023/10/08 11:39:59;;;;;;;11.65;4.10;;;23.10;96.20;;;;;;5054580;28;20094;-52
2023/10/08 11:42:43;;;;;;;8.25;3.25;;;23.60;95.80;;;;;;5054848;28;20068;-51
2023/10/08 11:45:18;;;;;;;9.52;3.75;;;24.20;92.90;;;;;;5054479;28;20029;-52
2023/10/08 11:47:45;;;;;;;7.43;3.63;;;23.90;92.10;;;;;;5054414;28;20028;-52
2023/10/08 11:50:17;;;;;;;7.68;3.58;;;23.70;92.20;;;;;;5053220;28;20079;-50
2023/10/08 11:52:43;;;;;;;8.75;4.38;;;22.70;94.00;;;;;;5054407;28;20025;-52
2023/10/08 11:55:09;;;;;;;10.27;4.07;;;22.10;98.30;;;;;;5054418;28;20060;-52
2023/10/08 11:57:35;;;;;;;9.85;3.83;;;22.00;98.90;;;;;;5054943;28;20453;-51
2023/10/08 12:00:18;;;;;;;10.93;3.85;;;22.20;97.20;;;;;;5054865;28;20108;-49
2023/10/08 12:02:46;;;;;;;11.52;4.60;;;22.20;98.20;;;;;;5054023;28;20116;-51
2023/10/08 12:05:18;;;;;;;11.77;5.57;;;22.40;98.20;;;;;;5054003;28;20029;-49
2023/10/08 12:07:47;;;;;;;7.35;3.28;;;23.70;94.60;;;;;;5054339;28;20349;-49
2023/10/08 12:10:14;;;;;;;11.10;4.38;;;24.40;90.50;;;;;;5053941;28;20044;-52
2023/10/08 12:12:40;;;;;;;10.43;5.38;;;25.20;86.40;;;;;;5054183;28;20090;-50
2023/10/08 12:15:09;;;;;;;11.25;4.18;;;25.00;86.90;;;;;;5058197;28;20108;-53
2023/10/08 12:17:39;;;;;;;13.38;4.57;;;25.60;85.20;;;;;;5057455;28;20350;-50
2023/10/08 12:20:22;;;;;;;8.52;4.18;;;25.80;79.20;;;;;;5057437;28;20116;-52
2023/10/08 12:22:49;;;;;;;9.23;4.07;;;25.20;84.30;;;;;;5057834;28;20091;-51
2023/10/08 12:25:15;;;;;;;9.80;4.47;;;25.60;81.20;;;;;;5057917;28;20052;-53
2023/10/08 12:27:41;;;;;;;10.75;4.07;;;26.00;78.00;;;;;;5057987;28;20063;-53
2023/10/08 12:30:10;;;;;;;11.43;5.10;;;25.60;76.90;;;;;;5058006;28;20404;-54
2023/10/08 12:32:42;;;;;;;;;;;25.50;78.50;;;;;;5058149;28;20461;-53
2023/10/08 12:35:12;;;;;;;10.48;4.18;;;25.80;79.30;;;;;;5057569;28;20015;-54
2023/10/08 12:37:44;;;;;;;8.52;4.05;;;26.00;75.50;;;;;;5057932;28;20037;-55
2023/10/08 12:40:22;;;;;;;8.20;3.58;;;25.70;78.00;;;;;;5057881;28;20040;-54
2023/10/08 12:42:50;;;;;;;7.47;3.17;;;24.70;81.30;;;;;;5057700;28;20123;-53
2023/10/08 12:45:20;;;;;;;7.47;3.63;;;23.50;89.60;;;;;;5057603;28;20437;-53
2023/10/08 12:47:47;;;;;;;10.35;4.53;;;23.80;90.50;;;;;;5056501;28;20472;-52
2023/10/08 12:50:15;;;;;;;9.88;3.65;;;24.40;88.00;;;;;;5057317;28;20045;-52
2023/10/08 12:52:52;;;;;;;13.13;4.40;;;24.30;86.60;;;;;;5057405;28;20021;-53
2023/10/08 12:55:23;;;;;;;9.15;3.78;;;24.20;89.00;;;;;;5057539;28;20039;-52
2023/10/08 12:57:55;;;;;;;11.73;3.83;;;23.30;91.00;;;;;;5057603;28;20036;-50
2023/10/08 13:00:25;;;;;;;6.80;3.28;;;22.90;97.80;;;;;;5057220;28;20047;-49
2023/10/08 13:02:53;;;;;;;7.90;3.80;;;22.70;98.70;;;;;;5057413;28;20477;-47
2023/10/08 13:05:28;;;;;;;10.88;4.45;;;22.30;99.90;;;;;;5057278;28;20049;-49
2023/10/08 13:07:55;;;;;;;10.68;4.35;;;22.20;99.90;;;;;;5057295;28;20033;-50
2023/10/08 13:10:22;;;;;;;9.98;4.18;;;21.90;99.90;;;;;;5056773;28;20043;-50
2023/10/08 13:12:48;;;;;;;12.35;4.95;;;21.60;99.90;;;;;;5056889;28;20021;-48
2023/10/08 13:15:14;;;;;;;14.00;4.25;;;21.60;99.90;;;;;;5057005;28;20033;-51
2023/10/08 13:17:42;;;;;;;7.57;3.70;;;21.80;99.90;;;;;;5057241;28;20052;-51
2023/10/08 13:20:12;;;;;;;14.32;4.60;;;21.60;99.90;;;;;;5055595;28;20033;-50
2023/10/08 13:22:39;;;;;;;8.65;4.10;;;21.30;99.90;;;;;;5039214;28;20074;-49
2023/10/08 13:25:06;;;;;;;6.68;3.20;;;21.10;99.90;;;;;;5055710;28;20040;-51
2023/10/08 13:27:32;;;;;;;10.93;4.28;;;21.10;99.90;;;;;;5057245;28;20025;-51
2023/10/08 13:29:58;;;;;;;10.85;3.83;;;21.10;99.90;;;;;;5056716;28;20366;-50
2023/10/08 13:32:24;;;;;;;8.32;3.83;;;21.00;99.90;;;;;;5056373;28;20032;-50
2023/10/08 13:34:50;;;;;;;11.18;4.72;;;20.80;99.90;;;;;;5055687;28;20021;-50
2023/10/08 13:37:15;;;;;;;8.15;4.07;;;20.70;99.90;;;;;;5056717;28;20112;-51
2023/10/08 13:39:42;;;;;;;10.20;3.95;;;20.70;99.90;;;;;;5038844;28;20111;-51
2023/10/08 13:42:07;;;;;;;13.30;4.47;;;20.80;99.90;;;;;;5055400;28;20037;-52
2023/10/08 13:44:35;;;;;;;8.68;4.00;;;20.70;99.90;;;;;;5056377;28;20045;-48
2023/10/08 13:47:05;;;;;;;9.80;4.75;;;20.80;99.90;;;;;;5056385;28;20041;-50
2023/10/08 13:49:32;;;;;;;10.68;4.63;;;20.90;99.90;;;;;;5056475;28;20057;-48
2023/10/08 13:51:58;;;;;;;10.38;5.35;;;20.60;99.90;;;;;;5054961;28;20036;-49
2023/10/08 13:54:29;;;;;;;8.15;4.32;;;20.70;99.90;;;;;;5056035;28;20037;-50
2023/10/08 13:56:56;;;;;;;10.20;3.35;;;20.80;99.90;;;;;;5056461;28;20045;-49
2023/10/08 13:59:24;;;;;;;9.73;3.70;;;20.60;99.90;;;;;;5056007;28;20401;-52
2023/10/08 14:01:54;;;;;;;11.50;4.75;;;20.40;99.90;;;;;;5056544;28;20056;-51
2023/10/08 14:04:20;;;;;;;13.25;4.50;;;20.30;99.90;;;;;;5055266;28;20036;-49